sensor_id;sensor_type;location;lat;lon;timestamp;P1;durP1;ratioP1;P2;durP2;ratioP2
8791;SDS011;4432;50.890;4.744;2023-04-01T00:00:19;2.53;;;0.83;;
8791;SDS011;4432;50.890;4.744;2023-04-01T00:02:46;0.73;;;0.73;;
8791;SDS011;4432;50.890;4.744;2023-04-01T00:05:13;2.23;;;1.30;;
8791;SDS011;4432;50.890;4.744;2023-04-01T00:07:39;1.30;;;0.70;;
8791;SDS011;4432;50.890;4.744;2023-04-01T00:10:06;0.60;;;0.60;;
8791;SDS011;4432;50.890;4.744;2023-04-01T00:12:33;2.67;;;0.90;;
8791;SDS011;4432;50.890;4.744;2023-04-01T00:14:59;1.13;;;0.83;;
8791;SDS011;4432;50.890;4.744;2023-04-01T00:17:26;2.83;;;0.70;;
8791;SDS011;4432;50.890;4.744;2023-04-01T00:19:53;1.97;;;0.70;;
8791;SDS011;4432;50.890;4.744;2023-04-01T00:22:20;0.63;;;0.63;;
8791;SDS011;4432;50.890;4.744;2023-04-01T00:24:47;1.50;;;0.80;;
8791;SDS011;4432;50.890;4.744;2023-04-01T00:27:13;1.03;;;0.70;;
8791;SDS011;4432;50.890;4.744;2023-04-01T00:29:41;4.77;;;0.97;;
8791;SDS011;4432;50.890;4.744;2023-04-01T00:32:08;4.73;;;0.90;;
8791;SDS011;4432;50.890;4.744;2023-04-01T00:34:33;1.53;;;0.87;;
8791;SDS011;4432;50.890;4.744;2023-04-01T00:36:59;1.43;;;0.83;;
8791;SDS011;4432;50.890;4.744;2023-04-01T00:39:25;1.13;;;0.90;;
8791;SDS011;4432;50.890;4.744;2023-04-01T00:41:53;2.67;;;1.07;;
8791;SDS011;4432;50.890;4.744;2023-04-01T00:44:23;3.30;;;0.70;;
8791;SDS011;4432;50.890;4.744;2023-04-01T00:46:51;1.33;;;0.53;;
8791;SDS011;4432;50.890;4.744;2023-04-01T00:49:18;3.43;;;0.77;;
8791;SDS011;4432;50.890;4.744;2023-04-01T00:51:47;2.03;;;0.87;;
8791;SDS011;4432;50.890;4.744;2023-04-01T00:54:16;2.87;;;0.90;;
8791;SDS011;4432;50.890;4.744;2023-04-01T00:59:22;1.70;;;0.53;;
8791;SDS011;4432;50.890;4.744;2023-04-01T01:01:51;2.00;;;1.00;;
8791;SDS011;4432;50.890;4.744;2023-04-01T01:04:21;2.27;;;0.60;;
8791;SDS011;4432;50.890;4.744;2023-04-01T01:12:44;3.30;;;0.70;;
8791;SDS011;4432;50.890;4.744;2023-04-01T01:15:20;0.70;;;0.70;;
8791;SDS011;4432;50.890;4.744;2023-04-01T01:18:14;1.90;;;0.47;;
8791;SDS011;4432;50.890;4.744;2023-04-01T01:28:57;1.57;;;0.73;;
8791;SDS011;4432;50.890;4.744;2023-04-01T01:33:56;0.70;;;0.70;;
8791;SDS011;4432;50.890;4.744;2023-04-01T01:36:37;1.43;;;0.70;;
8791;SDS011;4432;50.890;4.744;2023-04-01T01:39:05;2.90;;;0.90;;
8791;SDS011;4432;50.890;4.744;2023-04-01T01:41:34;0.80;;;0.80;;
8791;SDS011;4432;50.890;4.744;2023-04-01T01:44:01;0.93;;;0.77;;
8791;SDS011;4432;50.890;4.744;2023-04-01T01:46:30;2.00;;;0.80;;
8791;SDS011;4432;50.890;4.744;2023-04-01T01:48:56;3.20;;;0.60;;
8791;SDS011;4432;50.890;4.744;2023-04-01T01:51:25;2.20;;;1.00;;
8791;SDS011;4432;50.890;4.744;2023-04-01T01:53:52;3.50;;;1.07;;
8791;SDS011;4432;50.890;4.744;2023-04-01T01:56:18;1.30;;;0.73;;
8791;SDS011;4432;50.890;4.744;2023-04-01T01:58:52;0.63;;;0.63;;
8791;SDS011;4432;50.890;4.744;2023-04-01T02:01:24;2.53;;;0.97;;
8791;SDS011;4432;50.890;4.744;2023-04-01T02:03:52;0.97;;;0.80;;
8791;SDS011;4432;50.890;4.744;2023-04-01T02:06:21;2.97;;;0.80;;
8791;SDS011;4432;50.890;4.744;2023-04-01T02:08:53;0.63;;;0.57;;
8791;SDS011;4432;50.890;4.744;2023-04-01T02:11:30;0.60;;;0.60;;
8791;SDS011;4432;50.890;4.744;2023-04-01T02:14:16;1.50;;;0.93;;
8791;SDS011;4432;50.890;4.744;2023-04-01T02:16:47;0.63;;;0.63;;
8791;SDS011;4432;50.890;4.744;2023-04-01T02:19:43;1.43;;;1.00;;
8791;SDS011;4432;50.890;4.744;2023-04-01T02:22:12;3.20;;;1.47;;
8791;SDS011;4432;50.890;4.744;2023-04-01T02:24:41;0.90;;;0.90;;
8791;SDS011;4432;50.890;4.744;2023-04-01T02:27:11;0.93;;;0.83;;
8791;SDS011;4432;50.890;4.744;2023-04-01T02:29:37;2.10;;;1.50;;
8791;SDS011;4432;50.890;4.744;2023-04-01T02:32:03;2.23;;;1.10;;
8791;SDS011;4432;50.890;4.744;2023-04-01T02:34:30;1.03;;;1.00;;
8791;SDS011;4432;50.890;4.744;2023-04-01T02:36:57;1.00;;;0.97;;
8791;SDS011;4432;50.890;4.744;2023-04-01T02:39:23;1.13;;;1.03;;
8791;SDS011;4432;50.890;4.744;2023-04-01T02:41:51;2.33;;;1.37;;
8791;SDS011;4432;50.890;4.744;2023-04-01T02:44:17;0.53;;;0.53;;
8791;SDS011;4432;50.890;4.744;2023-04-01T02:46:44;2.27;;;1.20;;
8791;SDS011;4432;50.890;4.744;2023-04-01T02:49:10;2.30;;;1.00;;
8791;SDS011;4432;50.890;4.744;2023-04-01T02:51:35;2.97;;;1.07;;
8791;SDS011;4432;50.890;4.744;2023-04-01T02:54:02;1.30;;;1.20;;
8791;SDS011;4432;50.890;4.744;2023-04-01T02:56:28;2.73;;;1.60;;
8791;SDS011;4432;50.890;4.744;2023-04-01T02:58:53;2.80;;;1.60;;
8791;SDS011;4432;50.890;4.744;2023-04-01T03:01:20;5.07;;;1.80;;
8791;SDS011;4432;50.890;4.744;2023-04-01T03:03:46;1.23;;;1.00;;
8791;SDS011;4432;50.890;4.744;2023-04-01T03:06:12;1.20;;;1.10;;
8791;SDS011;4432;50.890;4.744;2023-04-01T03:08:40;2.40;;;1.40;;
8791;SDS011;4432;50.890;4.744;2023-04-01T03:11:06;1.23;;;1.13;;
8791;SDS011;4432;50.890;4.744;2023-04-01T03:13:32;3.97;;;1.37;;
8791;SDS011;4432;50.890;4.744;2023-04-01T03:15:58;1.30;;;1.20;;
8791;SDS011;4432;50.890;4.744;2023-04-01T03:18:23;1.20;;;1.10;;
8791;SDS011;4432;50.890;4.744;2023-04-01T03:20:49;1.63;;;1.53;;
8791;SDS011;4432;50.890;4.744;2023-04-01T03:23:15;4.73;;;1.27;;
8791;SDS011;4432;50.890;4.744;2023-04-01T03:25:44;4.57;;;1.60;;
8791;SDS011;4432;50.890;4.744;2023-04-01T03:28:10;1.93;;;1.30;;
8791;SDS011;4432;50.890;4.744;2023-04-01T03:30:37;2.13;;;1.33;;
8791;SDS011;4432;50.890;4.744;2023-04-01T03:33:03;4.37;;;1.60;;
8791;SDS011;4432;50.890;4.744;2023-04-01T03:35:28;6.83;;;1.30;;
8791;SDS011;4432;50.890;4.744;2023-04-01T03:37:55;3.33;;;1.60;;
8791;SDS011;4432;50.890;4.744;2023-04-01T03:40:21;1.63;;;1.50;;
8791;SDS011;4432;50.890;4.744;2023-04-01T03:42:47;3.57;;;1.50;;
8791;SDS011;4432;50.890;4.744;2023-04-01T03:45:14;5.13;;;2.03;;
8791;SDS011;4432;50.890;4.744;2023-04-01T03:47:40;4.07;;;1.87;;
8791;SDS011;4432;50.890;4.744;2023-04-01T03:50:06;2.67;;;1.67;;
8791;SDS011;4432;50.890;4.744;2023-04-01T03:52:33;4.40;;;2.23;;
8791;SDS011;4432;50.890;4.744;2023-04-01T03:55:00;6.93;;;1.93;;
8791;SDS011;4432;50.890;4.744;2023-04-01T03:57:26;3.40;;;1.53;;
8791;SDS011;4432;50.890;4.744;2023-04-01T03:59:52;4.97;;;2.20;;
8791;SDS011;4432;50.890;4.744;2023-04-01T04:02:18;4.50;;;2.27;;
8791;SDS011;4432;50.890;4.744;2023-04-01T04:04:43;5.93;;;2.13;;
8791;SDS011;4432;50.890;4.744;2023-04-01T04:07:11;4.07;;;2.33;;
8791;SDS011;4432;50.890;4.744;2023-04-01T04:09:37;5.30;;;2.17;;
8791;SDS011;4432;50.890;4.744;2023-04-01T04:12:03;4.03;;;2.50;;
8791;SDS011;4432;50.890;4.744;2023-04-01T04:14:30;5.23;;;2.57;;
8791;SDS011;4432;50.890;4.744;2023-04-01T04:16:56;9.57;;;2.67;;
8791;SDS011;4432;50.890;4.744;2023-04-01T04:19:22;4.03;;;2.33;;
8791;SDS011;4432;50.890;4.744;2023-04-01T04:21:48;3.63;;;2.03;;
8791;SDS011;4432;50.890;4.744;2023-04-01T04:24:14;4.90;;;3.07;;
8791;SDS011;4432;50.890;4.744;2023-04-01T04:26:40;3.93;;;2.33;;
8791;SDS011;4432;50.890;4.744;2023-04-01T04:29:05;6.00;;;3.10;;
8791;SDS011;4432;50.890;4.744;2023-04-01T04:31:31;2.37;;;2.13;;
8791;SDS011;4432;50.890;4.744;2023-04-01T04:33:58;3.57;;;2.43;;
8791;SDS011;4432;50.890;4.744;2023-04-01T04:36:26;7.33;;;3.03;;
8791;SDS011;4432;50.890;4.744;2023-04-01T04:38:51;4.77;;;2.90;;
8791;SDS011;4432;50.890;4.744;2023-04-01T04:41:18;6.20;;;2.70;;
8791;SDS011;4432;50.890;4.744;2023-04-01T04:43:52;6.17;;;2.57;;
8791;SDS011;4432;50.890;4.744;2023-04-01T04:46:20;9.97;;;2.57;;
8791;SDS011;4432;50.890;4.744;2023-04-01T04:48:46;4.10;;;2.53;;
8791;SDS011;4432;50.890;4.744;2023-04-01T04:51:15;3.70;;;2.40;;
8791;SDS011;4432;50.890;4.744;2023-04-01T04:53:42;2.10;;;1.90;;
8791;SDS011;4432;50.890;4.744;2023-04-01T04:56:08;4.70;;;2.53;;
8791;SDS011;4432;50.890;4.744;2023-04-01T04:58:34;5.80;;;2.10;;
8791;SDS011;4432;50.890;4.744;2023-04-01T05:01:10;5.13;;;1.80;;
8791;SDS011;4432;50.890;4.744;2023-04-01T05:03:37;3.97;;;1.70;;
8791;SDS011;4432;50.890;4.744;2023-04-01T05:06:03;3.27;;;2.13;;
8791;SDS011;4432;50.890;4.744;2023-04-01T05:08:29;4.07;;;1.70;;
8791;SDS011;4432;50.890;4.744;2023-04-01T05:10:55;2.00;;;1.80;;
8791;SDS011;4432;50.890;4.744;2023-04-01T05:13:21;6.07;;;2.57;;
8791;SDS011;4432;50.890;4.744;2023-04-01T05:15:47;3.70;;;2.13;;
8791;SDS011;4432;50.890;4.744;2023-04-01T05:18:13;2.97;;;1.87;;
8791;SDS011;4432;50.890;4.744;2023-04-01T05:20:38;2.50;;;1.90;;
8791;SDS011;4432;50.890;4.744;2023-04-01T05:23:04;2.33;;;1.57;;
8791;SDS011;4432;50.890;4.744;2023-04-01T05:25:30;2.00;;;1.50;;
8791;SDS011;4432;50.890;4.744;2023-04-01T05:27:56;1.77;;;1.50;;
8791;SDS011;4432;50.890;4.744;2023-04-01T05:30:21;1.10;;;1.00;;
8791;SDS011;4432;50.890;4.744;2023-04-01T05:32:47;1.30;;;1.20;;
8791;SDS011;4432;50.890;4.744;2023-04-01T05:35:13;1.47;;;1.37;;
8791;SDS011;4432;50.890;4.744;2023-04-01T05:37:39;2.30;;;1.40;;
8791;SDS011;4432;50.890;4.744;2023-04-01T05:40:05;1.50;;;1.40;;
8791;SDS011;4432;50.890;4.744;2023-04-01T05:42:31;1.07;;;1.00;;
8791;SDS011;4432;50.890;4.744;2023-04-01T05:44:58;1.30;;;1.30;;
8791;SDS011;4432;50.890;4.744;2023-04-01T05:47:24;1.47;;;1.37;;
8791;SDS011;4432;50.890;4.744;2023-04-01T05:49:49;0.97;;;0.97;;
8791;SDS011;4432;50.890;4.744;2023-04-01T05:52:15;1.10;;;1.10;;
8791;SDS011;4432;50.890;4.744;2023-04-01T05:54:41;1.00;;;1.00;;
8791;SDS011;4432;50.890;4.744;2023-04-01T05:57:07;0.90;;;0.90;;
8791;SDS011;4432;50.890;4.744;2023-04-01T05:59:32;3.13;;;1.37;;
8791;SDS011;4432;50.890;4.744;2023-04-01T06:02:00;1.20;;;1.10;;
8791;SDS011;4432;50.890;4.744;2023-04-01T06:04:26;1.20;;;1.10;;
8791;SDS011;4432;50.890;4.744;2023-04-01T06:06:57;1.20;;;1.10;;
8791;SDS011;4432;50.890;4.744;2023-04-01T06:09:27;1.67;;;1.43;;
8791;SDS011;4432;50.890;4.744;2023-04-01T06:20:34;2.23;;;1.60;;
8791;SDS011;4432;50.890;4.744;2023-04-01T06:37:12;3.43;;;2.30;;
8791;SDS011;4432;50.890;4.744;2023-04-01T06:40:37;5.20;;;2.27;;
8791;SDS011;4432;50.890;4.744;2023-04-01T06:43:16;3.97;;;2.43;;
8791;SDS011;4432;50.890;4.744;2023-04-01T06:46:16;3.50;;;2.00;;
8791;SDS011;4432;50.890;4.744;2023-04-01T06:54:58;5.97;;;2.30;;
8791;SDS011;4432;50.890;4.744;2023-04-01T06:57:33;2.80;;;1.90;;
8791;SDS011;4432;50.890;4.744;2023-04-01T07:00:04;4.00;;;2.23;;
8791;SDS011;4432;50.890;4.744;2023-04-01T07:02:48;2.73;;;2.20;;
8791;SDS011;4432;50.890;4.744;2023-04-01T07:05:20;2.60;;;2.13;;
8791;SDS011;4432;50.890;4.744;2023-04-01T07:07:48;4.23;;;2.07;;
8791;SDS011;4432;50.890;4.744;2023-04-01T07:10:32;2.13;;;1.93;;
8791;SDS011;4432;50.890;4.744;2023-04-01T07:13:02;3.20;;;2.20;;
8791;SDS011;4432;50.890;4.744;2023-04-01T07:15:38;2.90;;;2.20;;
8791;SDS011;4432;50.890;4.744;2023-04-01T07:18:18;2.20;;;2.00;;
8791;SDS011;4432;50.890;4.744;2023-04-01T07:20:48;3.10;;;2.07;;
8791;SDS011;4432;50.890;4.744;2023-04-01T07:23:23;4.50;;;2.07;;
8791;SDS011;4432;50.890;4.744;2023-04-01T07:25:59;3.23;;;2.07;;
8791;SDS011;4432;50.890;4.744;2023-04-01T07:28:32;3.73;;;2.23;;
8791;SDS011;4432;50.890;4.744;2023-04-01T07:34:23;4.10;;;2.10;;
8791;SDS011;4432;50.890;4.744;2023-04-01T07:42:17;1.70;;;1.60;;
8791;SDS011;4432;50.890;4.744;2023-04-01T07:48:08;1.77;;;1.30;;
8791;SDS011;4432;50.890;4.744;2023-04-01T07:50:50;0.80;;;0.80;;
8791;SDS011;4432;50.890;4.744;2023-04-01T07:53:33;1.37;;;1.10;;
8791;SDS011;4432;50.890;4.744;2023-04-01T08:01:23;1.00;;;0.87;;
8791;SDS011;4432;50.890;4.744;2023-04-01T08:06:37;2.00;;;0.97;;
8791;SDS011;4432;50.890;4.744;2023-04-01T08:12:46;1.17;;;1.07;;
8791;SDS011;4432;50.890;4.744;2023-04-01T08:22:48;1.33;;;0.73;;
8791;SDS011;4432;50.890;4.744;2023-04-01T08:25:27;0.60;;;0.60;;
8791;SDS011;4432;50.890;4.744;2023-04-01T08:30:50;1.33;;;1.00;;
8791;SDS011;4432;50.890;4.744;2023-04-01T08:33:24;0.60;;;0.60;;
8791;SDS011;4432;50.890;4.744;2023-04-01T08:35:54;1.10;;;0.63;;
8791;SDS011;4432;50.890;4.744;2023-04-01T08:38:38;1.33;;;0.70;;
8791;SDS011;4432;50.890;4.744;2023-04-01T09:10:59;0.80;;;0.80;;
8791;SDS011;4432;50.890;4.744;2023-04-01T09:34:15;0.90;;;0.90;;
8791;SDS011;4432;50.890;4.744;2023-04-01T09:36:59;0.80;;;0.80;;
8791;SDS011;4432;50.890;4.744;2023-04-01T09:39:36;0.90;;;0.90;;
8791;SDS011;4432;50.890;4.744;2023-04-01T09:45:21;2.13;;;1.00;;
8791;SDS011;4432;50.890;4.744;2023-04-01T09:50:42;0.80;;;0.80;;
8791;SDS011;4432;50.890;4.744;2023-04-01T09:53:36;1.00;;;1.00;;
8791;SDS011;4432;50.890;4.744;2023-04-01T10:22:21;1.40;;;1.30;;
8791;SDS011;4432;50.890;4.744;2023-04-01T11:28:35;1.63;;;0.83;;
8791;SDS011;4432;50.890;4.744;2023-04-01T11:48:16;1.23;;;0.80;;
8791;SDS011;4432;50.890;4.744;2023-04-01T12:07:38;1.00;;;1.00;;
8791;SDS011;4432;50.890;4.744;2023-04-01T12:13:26;0.90;;;0.90;;
8791;SDS011;4432;50.890;4.744;2023-04-01T13:17:50;0.60;;;0.60;;
8791;SDS011;4432;50.890;4.744;2023-04-01T13:26:40;0.60;;;0.60;;
8791;SDS011;4432;50.890;4.744;2023-04-01T13:29:41;0.70;;;0.70;;
8791;SDS011;4432;50.890;4.744;2023-04-01T13:32:27;1.50;;;0.87;;
8791;SDS011;4432;50.890;4.744;2023-04-01T13:45:24;0.80;;;0.80;;
8791;SDS011;4432;50.890;4.744;2023-04-01T14:14:17;0.60;;;0.50;;
8791;SDS011;4432;50.890;4.744;2023-04-01T14:24:57;0.60;;;0.60;;
8791;SDS011;4432;50.890;4.744;2023-04-01T14:30:37;1.50;;;1.33;;
8791;SDS011;4432;50.890;4.744;2023-04-01T14:38:33;1.60;;;1.50;;
8791;SDS011;4432;50.890;4.744;2023-04-01T14:52:14;2.20;;;2.00;;
8791;SDS011;4432;50.890;4.744;2023-04-01T14:54:57;2.20;;;2.00;;
8791;SDS011;4432;50.890;4.744;2023-04-01T15:02:56;1.97;;;1.87;;
8791;SDS011;4432;50.890;4.744;2023-04-01T15:08:32;2.10;;;1.90;;
8791;SDS011;4432;50.890;4.744;2023-04-01T15:30:31;1.70;;;1.20;;
8791;SDS011;4432;50.890;4.744;2023-04-01T15:33:13;0.83;;;0.83;;
8791;SDS011;4432;50.890;4.744;2023-04-01T15:38:49;2.63;;;0.93;;
8791;SDS011;4432;50.890;4.744;2023-04-01T15:46:55;4.10;;;1.33;;
8791;SDS011;4432;50.890;4.744;2023-04-01T15:54:32;2.00;;;1.20;;
8791;SDS011;4432;50.890;4.744;2023-04-01T16:02:21;1.17;;;1.13;;
8791;SDS011;4432;50.890;4.744;2023-04-01T16:14:18;2.80;;;1.30;;
8791;SDS011;4432;50.890;4.744;2023-04-01T16:22:40;1.30;;;1.20;;
8791;SDS011;4432;50.890;4.744;2023-04-01T16:25:33;2.90;;;1.10;;
8791;SDS011;4432;50.890;4.744;2023-04-01T16:33:55;2.10;;;1.00;;
8791;SDS011;4432;50.890;4.744;2023-04-01T16:44:50;1.63;;;1.17;;
8791;SDS011;4432;50.890;4.744;2023-04-01T16:47:19;1.00;;;1.00;;
8791;SDS011;4432;50.890;4.744;2023-04-01T16:49:58;0.77;;;0.77;;
8791;SDS011;4432;50.890;4.744;2023-04-01T16:55:43;1.30;;;1.20;;
8791;SDS011;4432;50.890;4.744;2023-04-01T16:58:18;1.40;;;1.27;;
8791;SDS011;4432;50.890;4.744;2023-04-01T17:00:54;1.83;;;1.10;;
8791;SDS011;4432;50.890;4.744;2023-04-01T17:03:27;1.30;;;1.20;;
8791;SDS011;4432;50.890;4.744;2023-04-01T17:24:51;3.13;;;2.07;;
8791;SDS011;4432;50.890;4.744;2023-04-01T17:42:06;2.10;;;1.90;;
8791;SDS011;4432;50.890;4.744;2023-04-01T17:49:49;3.47;;;1.80;;
8791;SDS011;4432;50.890;4.744;2023-04-01T18:09:48;5.10;;;2.70;;
8791;SDS011;4432;50.890;4.744;2023-04-01T18:23:41;2.90;;;2.60;;
8791;SDS011;4432;50.890;4.744;2023-04-01T18:31:45;2.63;;;2.37;;
8791;SDS011;4432;50.890;4.744;2023-04-01T18:36:53;2.73;;;2.53;;
8791;SDS011;4432;50.890;4.744;2023-04-01T18:39:30;2.47;;;2.27;;
8791;SDS011;4432;50.890;4.744;2023-04-01T18:42:08;3.70;;;2.50;;
8791;SDS011;4432;50.890;4.744;2023-04-01T18:44:55;2.77;;;2.50;;
8791;SDS011;4432;50.890;4.744;2023-04-01T18:53:09;3.13;;;2.73;;
8791;SDS011;4432;50.890;4.744;2023-04-01T18:55:55;2.83;;;2.63;;
8791;SDS011;4432;50.890;4.744;2023-04-01T19:04:19;3.10;;;2.80;;
8791;SDS011;4432;50.890;4.744;2023-04-01T19:06:51;4.93;;;2.93;;
8791;SDS011;4432;50.890;4.744;2023-04-01T19:09:22;3.33;;;2.60;;
8791;SDS011;4432;50.890;4.744;2023-04-01T19:14:51;4.33;;;3.27;;
8791;SDS011;4432;50.890;4.744;2023-04-01T19:20:37;2.90;;;2.60;;
8791;SDS011;4432;50.890;4.744;2023-04-01T19:26:00;3.43;;;2.67;;
8791;SDS011;4432;50.890;4.744;2023-04-01T19:36:33;4.40;;;3.20;;
8791;SDS011;4432;50.890;4.744;2023-04-01T19:39:41;4.50;;;3.37;;
8791;SDS011;4432;50.890;4.744;2023-04-01T19:42:19;4.27;;;3.17;;
8791;SDS011;4432;50.890;4.744;2023-04-01T19:47:43;7.33;;;3.47;;
8791;SDS011;4432;50.890;4.744;2023-04-01T19:50:45;5.33;;;3.17;;
8791;SDS011;4432;50.890;4.744;2023-04-01T19:53:27;5.43;;;3.10;;
8791;SDS011;4432;50.890;4.744;2023-04-01T20:01:24;6.23;;;3.67;;
8791;SDS011;4432;50.890;4.744;2023-04-01T20:03:58;5.27;;;3.10;;
8791;SDS011;4432;50.890;4.744;2023-04-01T20:06:35;4.30;;;3.63;;
8791;SDS011;4432;50.890;4.744;2023-04-01T20:09:29;5.87;;;3.27;;
8791;SDS011;4432;50.890;4.744;2023-04-01T20:14:50;7.03;;;3.07;;
8791;SDS011;4432;50.890;4.744;2023-04-01T20:20:15;4.50;;;3.67;;
8791;SDS011;4432;50.890;4.744;2023-04-01T20:25:15;7.17;;;3.30;;
8791;SDS011;4432;50.890;4.744;2023-04-01T20:27:45;7.37;;;3.50;;
8791;SDS011;4432;50.890;4.744;2023-04-01T20:30:34;6.13;;;3.70;;
8791;SDS011;4432;50.890;4.744;2023-04-01T20:33:20;7.87;;;3.80;;
8791;SDS011;4432;50.890;4.744;2023-04-01T20:44:24;8.60;;;4.40;;
8791;SDS011;4432;50.890;4.744;2023-04-01T20:50:28;5.80;;;4.70;;
8791;SDS011;4432;50.890;4.744;2023-04-01T20:53:15;6.47;;;4.67;;
8791;SDS011;4432;50.890;4.744;2023-04-01T21:00:42;10.77;;;5.83;;
8791;SDS011;4432;50.890;4.744;2023-04-01T21:11:24;13.83;;;7.57;;
8791;SDS011;4432;50.890;4.744;2023-04-01T21:18:00;12.03;;;6.87;;
8791;SDS011;4432;50.890;4.744;2023-04-01T21:20:29;12.50;;;7.03;;
8791;SDS011;4432;50.890;4.744;2023-04-01T21:26:14;13.50;;;7.57;;
8791;SDS011;4432;50.890;4.744;2023-04-01T21:54:28;7.13;;;5.00;;
8791;SDS011;4432;50.890;4.744;2023-04-01T22:10:54;8.40;;;6.17;;
8791;SDS011;4432;50.890;4.744;2023-04-01T22:13:48;10.20;;;6.73;;
8791;SDS011;4432;50.890;4.744;2023-04-01T22:19:17;7.03;;;5.07;;
8791;SDS011;4432;50.890;4.744;2023-04-01T22:22:34;9.77;;;6.20;;
8791;SDS011;4432;50.890;4.744;2023-04-01T22:25:25;10.87;;;6.83;;
8791;SDS011;4432;50.890;4.744;2023-04-01T22:31:03;12.93;;;6.57;;
8791;SDS011;4432;50.890;4.744;2023-04-01T22:47:40;7.63;;;4.77;;
8791;SDS011;4432;50.890;4.744;2023-04-01T22:50:20;8.30;;;6.07;;
8791;SDS011;4432;50.890;4.744;2023-04-01T22:52:55;7.63;;;5.40;;
8791;SDS011;4432;50.890;4.744;2023-04-01T22:55:42;9.67;;;5.63;;
8791;SDS011;4432;50.890;4.744;2023-04-01T22:58:16;8.33;;;5.10;;
8791;SDS011;4432;50.890;4.744;2023-04-01T23:01:14;6.83;;;4.90;;
8791;SDS011;4432;50.890;4.744;2023-04-01T23:03:45;9.83;;;6.10;;
8791;SDS011;4432;50.890;4.744;2023-04-01T23:06:33;7.33;;;5.17;;
8791;SDS011;4432;50.890;4.744;2023-04-01T23:16:47;8.00;;;4.97;;
8791;SDS011;4432;50.890;4.744;2023-04-01T23:19:26;11.57;;;6.23;;
8791;SDS011;4432;50.890;4.744;2023-04-01T23:22:02;8.07;;;5.23;;
8791;SDS011;4432;50.890;4.744;2023-04-01T23:24:44;9.47;;;6.27;;
8791;SDS011;4432;50.890;4.744;2023-04-01T23:27:30;10.13;;;6.53;;
8791;SDS011;4432;50.890;4.744;2023-04-01T23:29:59;8.73;;;5.93;;
8791;SDS011;4432;50.890;4.744;2023-04-01T23:32:25;9.53;;;6.37;;
8791;SDS011;4432;50.890;4.744;2023-04-01T23:35:00;8.23;;;5.53;;
8791;SDS011;4432;50.890;4.744;2023-04-01T23:37:26;8.57;;;5.40;;
8791;SDS011;4432;50.890;4.744;2023-04-01T23:39:56;8.67;;;5.77;;
8791;SDS011;4432;50.890;4.744;2023-04-01T23:45:04;7.63;;;5.13;;
8791;SDS011;4432;50.890;4.744;2023-04-01T23:47:38;9.33;;;5.43;;
8791;SDS011;4432;50.890;4.744;2023-04-01T23:52:35;7.50;;;5.20;;
8791;SDS011;4432;50.890;4.744;2023-04-01T23:58:50;6.30;;;4.57;;
